createdAt,value
2019-01-20T00:01:29.703Z,99.90
2019-01-20T00:04:00.688Z,99.90
2019-01-20T00:06:31.554Z,99.90
2019-01-20T00:09:03.885Z,99.90
2019-01-20T00:11:36.404Z,99.90
2019-01-20T00:14:07.618Z,99.90
2019-01-20T00:16:38.571Z,99.90
2019-01-20T00:19:09.485Z,99.90
2019-01-20T00:21:40.493Z,99.90
2019-01-20T00:24:11.445Z,99.90
2019-01-20T00:26:42.300Z,99.90
2019-01-20T00:29:13.267Z,99.90
2019-01-20T00:31:44.076Z,99.90
2019-01-20T00:34:15.081Z,99.90
2019-01-20T00:36:45.901Z,99.90
2019-01-20T00:39:16.840Z,99.90
2019-01-20T00:41:47.713Z,99.90
2019-01-20T00:44:18.626Z,99.90
2019-01-20T00:46:49.546Z,99.90
2019-01-20T00:49:20.464Z,99.90
2019-01-20T00:51:51.411Z,99.90
2019-01-20T00:54:22.430Z,99.90
2019-01-20T00:56:53.307Z,99.90
2019-01-20T00:59:24.249Z,99.90
2019-01-20T01:01:55.142Z,99.90
2019-01-20T01:04:26.063Z,99.90
2019-01-20T01:06:56.876Z,99.90
2019-01-20T01:09:27.789Z,99.90
2019-01-20T01:11:58.595Z,99.90
2019-01-20T01:14:29.545Z,99.90
2019-01-20T01:17:00.385Z,99.90
2019-01-20T01:19:31.231Z,99.90
2019-01-20T01:22:02.110Z,99.90
2019-01-20T01:24:33.096Z,99.90
2019-01-20T01:27:03.994Z,99.90
2019-01-20T01:29:34.905Z,99.90
2019-01-20T01:32:05.971Z,99.90
2019-01-20T01:34:36.900Z,99.90
2019-01-20T01:37:07.931Z,99.90
2019-01-20T01:39:38.865Z,99.90
2019-01-20T01:42:09.751Z,99.90
2019-01-20T01:44:40.607Z,99.90
2019-01-20T01:47:11.509Z,99.90
2019-01-20T01:49:42.485Z,99.90
2019-01-20T01:52:13.363Z,99.90
2019-01-20T01:54:45.247Z,99.90
2019-01-20T01:57:16.215Z,99.90
2019-01-20T01:59:47.264Z,99.90
2019-01-20T02:02:18.152Z,99.90
2019-01-20T02:04:49.009Z,99.90
2019-01-20T02:07:19.895Z,99.90
2019-01-20T02:09:50.980Z,99.90
2019-01-20T02:12:21.861Z,99.90
2019-01-20T02:14:52.799Z,99.90
2019-01-20T02:17:23.754Z,99.90
2019-01-20T02:19:54.710Z,99.90
2019-01-20T02:22:25.596Z,99.90
2019-01-20T02:24:56.587Z,99.90
2019-01-20T02:27:27.505Z,99.90
2019-01-20T02:29:58.350Z,99.90
2019-01-20T02:32:29.317Z,99.90
2019-01-20T02:35:00.241Z,99.90
2019-01-20T02:37:31.204Z,99.90
2019-01-20T02:40:02.129Z,99.90
2019-01-20T02:42:32.953Z,99.90
2019-01-20T02:45:06.605Z,99.90
2019-01-20T02:47:37.501Z,99.90
2019-01-20T02:50:13.056Z,99.90
2019-01-20T02:52:44.199Z,99.90
2019-01-20T02:55:15.271Z,99.90
2019-01-20T02:57:46.079Z,99.90
2019-01-20T03:00:24.345Z,99.90
2019-01-20T03:02:55.338Z,99.90
2019-01-20T03:05:26.369Z,99.90
2019-01-20T03:07:57.294Z,99.90
2019-01-20T03:10:28.144Z,99.90
2019-01-20T03:12:58.959Z,99.90
2019-01-20T03:15:29.875Z,99.90
2019-01-20T03:18:00.698Z,99.90
2019-01-20T03:20:31.689Z,99.90
2019-01-20T03:23:02.642Z,99.90
2019-01-20T03:25:33.496Z,99.90
2019-01-20T03:28:04.420Z,99.90
2019-01-20T03:30:35.285Z,99.90
2019-01-20T03:33:06.248Z,99.90
2019-01-20T03:35:37.402Z,99.90
2019-01-20T03:38:08.308Z,99.90
2019-01-20T03:40:39.226Z,99.90
2019-01-20T03:43:10.181Z,99.90
2019-01-20T03:45:41.165Z,99.90
2019-01-20T03:48:12.155Z,99.90
2019-01-20T03:50:42.999Z,99.90
2019-01-20T03:53:13.810Z,99.90
2019-01-20T03:55:44.726Z,99.90
2019-01-20T03:58:15.607Z,99.90
2019-01-20T04:00:46.593Z,99.90
2019-01-20T04:03:17.553Z,99.90
2019-01-20T04:05:48.541Z,99.90
2019-01-20T04:08:19.431Z,99.90
2019-01-20T04:10:50.345Z,99.90
2019-01-20T04:13:21.304Z,99.90
2019-01-20T04:15:52.256Z,99.90
2019-01-20T04:18:23.261Z,99.90
2019-01-20T04:20:54.303Z,99.90
2019-01-20T04:23:25.365Z,99.90
2019-01-20T04:25:56.274Z,99.90
2019-01-20T04:28:27.254Z,99.90
2019-01-20T04:30:58.155Z,99.90
2019-01-20T04:33:29.039Z,99.90
2019-01-20T04:36:00.027Z,99.90
2019-01-20T04:38:30.918Z,99.90
2019-01-20T04:41:01.766Z,99.90
2019-01-20T04:43:32.757Z,99.90
2019-01-20T04:46:03.792Z,99.90
2019-01-20T04:48:34.675Z,99.90
2019-01-20T04:51:05.679Z,99.90
2019-01-20T04:53:37.437Z,99.90
2019-01-20T04:56:08.363Z,99.90
2019-01-20T04:58:39.242Z,99.90
2019-01-20T05:01:10.158Z,99.90
2019-01-20T05:03:41.040Z,99.90
2019-01-20T05:06:12.025Z,99.90
2019-01-20T05:08:42.990Z,99.90
2019-01-20T05:11:13.918Z,99.90
2019-01-20T05:13:44.870Z,99.90
2019-01-20T05:16:15.817Z,99.90
2019-01-20T05:18:46.811Z,99.90
2019-01-20T05:21:17.801Z,99.90
2019-01-20T05:23:48.778Z,99.90
2019-01-20T05:26:19.894Z,99.90
2019-01-20T05:28:50.713Z,99.90
2019-01-20T05:31:21.563Z,99.90
2019-01-20T05:33:52.379Z,99.90
2019-01-20T05:36:23.295Z,99.90
2019-01-20T05:38:54.254Z,99.90
2019-01-20T05:41:25.746Z,99.90
2019-01-20T05:43:56.644Z,99.90
2019-01-20T05:46:27.494Z,99.90
2019-01-20T05:48:58.315Z,99.90
2019-01-20T05:51:29.229Z,99.90
2019-01-20T05:54:00.045Z,99.90
2019-01-20T05:56:30.896Z,99.90
2019-01-20T05:59:01.783Z,99.90
2019-01-20T06:01:32.717Z,99.90
2019-01-20T06:04:03.601Z,99.90
2019-01-20T06:06:34.443Z,99.90
2019-01-20T06:09:08.097Z,99.90
2019-01-20T06:11:39.074Z,99.90
2019-01-20T06:14:09.901Z,99.90
2019-01-20T06:16:40.765Z,99.90
2019-01-20T06:19:11.584Z,99.90
2019-01-20T06:21:42.503Z,99.90
2019-01-20T06:24:13.534Z,99.90
2019-01-20T06:26:44.457Z,99.90
2019-01-20T06:29:15.260Z,99.90
2019-01-20T06:31:47.152Z,99.90
2019-01-20T06:34:18.136Z,99.90
2019-01-20T06:36:49.059Z,99.90
2019-01-20T06:39:20.839Z,99.90
2019-01-20T06:41:51.649Z,99.90
2019-01-20T06:44:22.635Z,99.90
2019-01-20T06:46:53.639Z,99.90
2019-01-20T06:49:24.447Z,99.90
2019-01-20T06:51:55.411Z,99.90
2019-01-20T06:54:26.401Z,99.90
2019-01-20T06:56:57.318Z,99.90
2019-01-20T06:59:28.243Z,99.90
2019-01-20T07:01:59.209Z,99.90
2019-01-20T07:04:30.174Z,99.90
2019-01-20T07:07:01.063Z,99.90
2019-01-20T07:09:31.932Z,99.90
2019-01-20T07:12:02.883Z,99.90
2019-01-20T07:14:33.796Z,99.90
2019-01-20T07:17:04.750Z,99.90
2019-01-20T07:19:35.735Z,99.90
2019-01-20T07:22:06.714Z,99.90
2019-01-20T07:24:37.622Z,99.90
2019-01-20T07:27:08.574Z,99.90
2019-01-20T07:29:39.480Z,99.90
2019-01-20T07:32:10.433Z,99.90
2019-01-20T07:34:41.302Z,99.90
2019-01-20T07:37:12.205Z,99.90
2019-01-20T07:39:43.220Z,99.90
2019-01-20T07:42:14.130Z,99.90
2019-01-20T07:44:45.174Z,99.90
2019-01-20T07:47:16.055Z,99.90
2019-01-20T07:49:47.005Z,99.90
2019-01-20T07:52:17.887Z,99.90
2019-01-20T07:54:48.724Z,99.90
2019-01-20T07:57:19.524Z,99.90
2019-01-20T07:59:50.500Z,99.90
2019-01-20T08:02:21.381Z,99.90
2019-01-20T08:04:52.354Z,99.90
2019-01-20T08:07:23.207Z,99.90
2019-01-20T08:09:54.105Z,99.90
2019-01-20T08:12:24.901Z,99.90
2019-01-20T08:14:55.801Z,99.90
2019-01-20T08:17:26.630Z,99.90
2019-01-20T08:19:57.463Z,99.90
2019-01-20T08:22:28.412Z,99.90
2019-01-20T08:24:59.372Z,99.90
2019-01-20T08:27:30.251Z,99.90
2019-01-20T08:30:01.174Z,99.90
2019-01-20T08:32:32.043Z,99.90
2019-01-20T08:35:02.946Z,99.90
2019-01-20T08:37:34.389Z,99.90
2019-01-20T08:40:12.045Z,99.90
2019-01-20T08:42:42.985Z,99.90
2019-01-20T08:45:39.341Z,99.90
2019-01-20T08:48:20.845Z,99.90
2019-01-20T08:50:51.770Z,99.90
2019-01-20T08:53:22.574Z,99.90
2019-01-20T08:55:53.413Z,99.90
2019-01-20T08:58:24.346Z,99.90
2019-01-20T09:00:55.327Z,99.90
2019-01-20T09:03:26.181Z,99.90
2019-01-20T09:05:57.086Z,99.90
2019-01-20T09:08:28.146Z,99.90
2019-01-20T09:10:59.065Z,99.90
2019-01-20T09:13:30.049Z,99.90
2019-01-20T09:16:01.036Z,99.90
2019-01-20T09:18:31.834Z,99.90
2019-01-20T09:21:02.732Z,99.90
2019-01-20T09:23:33.526Z,99.90
2019-01-20T09:26:04.492Z,99.90
2019-01-20T09:28:35.296Z,99.90
2019-01-20T09:31:06.301Z,99.90
2019-01-20T09:33:38.249Z,99.90
2019-01-20T09:36:09.146Z,99.90
2019-01-20T09:38:40.010Z,99.90
2019-01-20T09:41:10.974Z,99.90
2019-01-20T09:43:47.100Z,99.90
2019-01-20T09:46:16.284Z,99.90
2019-01-20T09:48:47.343Z,99.90
2019-01-20T09:51:18.172Z,99.90
2019-01-20T09:53:49.128Z,99.90
2019-01-20T09:56:20.162Z,99.90
2019-01-20T09:58:52.579Z,99.90
2019-01-20T10:01:23.399Z,99.90
2019-01-20T10:03:54.275Z,99.90
2019-01-20T10:06:25.212Z,99.90
2019-01-20T10:08:56.415Z,99.90
2019-01-20T10:11:27.386Z,99.90
2019-01-20T10:13:58.252Z,99.90
2019-01-20T10:16:29.253Z,99.90
2019-01-20T10:19:00.113Z,99.90
2019-01-20T10:21:31.002Z,99.90
2019-01-20T10:24:01.968Z,99.90
2019-01-20T10:26:32.853Z,99.90
2019-01-20T10:29:03.746Z,99.90
2019-01-20T10:31:34.776Z,99.90
2019-01-20T10:34:05.807Z,99.90
2019-01-20T10:36:36.732Z,99.90
2019-01-20T10:39:11.248Z,99.90
2019-01-20T10:41:42.204Z,99.90
2019-01-20T10:44:13.086Z,96.90
2019-01-20T10:46:44.107Z,93.60
2019-01-20T10:49:14.996Z,90.40
2019-01-20T10:51:46.803Z,90.70
2019-01-20T10:54:17.699Z,91.70
2019-01-20T10:56:48.549Z,92.50
2019-01-20T10:59:19.558Z,92.10
2019-01-20T11:01:50.510Z,90.70
2019-01-20T11:04:21.406Z,91.30
2019-01-20T11:06:52.285Z,90.90
2019-01-20T11:09:23.103Z,91.70
2019-01-20T11:11:54.043Z,92.20
2019-01-20T11:14:24.863Z,93.00
2019-01-20T11:16:55.839Z,93.60
2019-01-20T11:19:26.788Z,91.20
2019-01-20T11:21:57.722Z,90.50
2019-01-20T11:24:28.765Z,90.00
2019-01-20T11:26:59.759Z,96.80
2019-01-20T11:29:30.838Z,99.90
2019-01-20T11:32:01.697Z,99.90
2019-01-20T11:34:32.596Z,97.20
2019-01-20T11:37:03.416Z,90.10
2019-01-20T11:39:34.261Z,91.70
2019-01-20T11:42:05.357Z,92.90
2019-01-20T11:44:36.310Z,95.00
2019-01-20T11:47:07.261Z,88.00
2019-01-20T11:49:38.173Z,82.60
2019-01-20T11:52:09.171Z,80.90
2019-01-20T11:54:40.222Z,76.10
2019-01-20T11:57:11.243Z,76.30
2019-01-20T11:59:42.063Z,77.10
2019-01-20T12:02:13.025Z,76.90
2019-01-20T12:04:43.883Z,76.30
2019-01-20T12:07:14.845Z,76.80
2019-01-20T12:09:45.710Z,81.40
2019-01-20T12:12:16.593Z,85.60
2019-01-20T12:14:47.490Z,90.00
2019-01-20T12:17:18.376Z,90.60
2019-01-20T12:19:49.332Z,91.70
2019-01-20T12:22:20.342Z,92.50
2019-01-20T12:24:51.350Z,93.60
2019-01-20T12:27:22.313Z,93.20
2019-01-20T12:29:53.101Z,94.10
2019-01-20T12:32:24.192Z,94.70
2019-01-20T12:34:55.047Z,95.20
2019-01-20T12:37:25.871Z,95.30
2019-01-20T12:39:56.762Z,96.40
2019-01-20T12:42:27.691Z,96.20
2019-01-20T12:44:58.614Z,96.90
2019-01-20T12:47:29.493Z,98.40
2019-01-20T12:50:00.458Z,98.20
2019-01-20T12:52:31.318Z,98.60
2019-01-20T12:55:02.297Z,99.10
2019-01-20T12:57:33.213Z,99.90
2019-01-20T13:00:06.943Z,99.90
2019-01-20T13:02:37.904Z,99.90
2019-01-20T13:05:08.996Z,99.90
2019-01-20T13:07:39.961Z,99.90
2019-01-20T13:10:19.205Z,99.90
2019-01-20T13:12:50.372Z,99.90
2019-01-20T13:15:25.424Z,99.90
2019-01-20T13:17:56.387Z,99.90
2019-01-20T13:20:27.853Z,99.90
2019-01-20T13:22:58.680Z,99.90
2019-01-20T13:25:30.345Z,99.90
2019-01-20T13:28:01.322Z,99.90
2019-01-20T13:30:32.369Z,99.90
2019-01-20T13:33:04.237Z,99.90
2019-01-20T13:35:35.102Z,99.90
2019-01-20T13:38:11.163Z,99.90
2019-01-20T13:40:46.731Z,99.90
2019-01-20T13:43:17.618Z,99.90
2019-01-20T13:45:48.484Z,99.90
2019-01-20T13:48:19.475Z,99.90
2019-01-20T13:50:50.451Z,99.90
2019-01-20T13:53:21.419Z,99.90
2019-01-20T13:55:52.289Z,99.90
2019-01-20T13:58:23.288Z,99.90
2019-01-20T14:00:54.250Z,99.90
2019-01-20T14:03:26.301Z,99.90
2019-01-20T14:05:57.241Z,99.90
2019-01-20T14:08:28.134Z,99.90
2019-01-20T14:10:59.096Z,99.90
2019-01-20T14:13:29.998Z,99.90
2019-01-20T14:16:00.940Z,99.90
2019-01-20T14:18:31.974Z,99.90
2019-01-20T14:21:02.846Z,99.90
2019-01-20T14:23:33.814Z,99.90
2019-01-20T14:26:04.611Z,99.90
2019-01-20T14:28:35.590Z,99.90
2019-01-20T14:31:06.385Z,99.90
2019-01-20T14:33:38.363Z,99.90
2019-01-20T14:36:09.238Z,99.90
2019-01-20T14:38:40.140Z,99.90
2019-01-20T14:41:14.091Z,99.90
2019-01-20T14:43:47.881Z,99.90
2019-01-20T14:46:18.841Z,99.90
2019-01-20T14:48:50.540Z,99.90
2019-01-20T14:51:21.572Z,99.90
2019-01-20T14:53:52.565Z,99.90
2019-01-20T14:56:26.442Z,99.90
2019-01-20T14:58:57.457Z,99.90
2019-01-20T15:01:28.391Z,99.90
2019-01-20T15:03:59.355Z,99.90
2019-01-20T15:06:30.225Z,99.90
2019-01-20T15:09:01.199Z,99.90
2019-01-20T15:11:33.345Z,99.90
2019-01-20T15:14:04.747Z,99.90
2019-01-20T15:16:35.647Z,99.90
2019-01-20T15:19:06.677Z,99.90
2019-01-20T15:21:37.491Z,99.90
2019-01-20T15:24:08.445Z,99.90
2019-01-20T15:26:39.413Z,99.90
2019-01-20T15:29:10.401Z,99.90
2019-01-20T15:31:41.391Z,99.90
2019-01-20T15:34:12.378Z,99.90
2019-01-20T15:36:43.351Z,99.90
2019-01-20T15:39:14.233Z,99.90
2019-01-20T15:41:45.210Z,99.90
2019-01-20T15:44:16.178Z,99.90
2019-01-20T15:46:47.225Z,99.90
2019-01-20T15:49:18.118Z,99.90
2019-01-20T15:51:49.103Z,99.90
2019-01-20T15:54:20.082Z,99.90
2019-01-20T15:56:51.059Z,99.90
2019-01-20T15:59:22.051Z,99.90
2019-01-20T16:01:53.157Z,99.90
2019-01-20T16:04:24.305Z,99.90
2019-01-20T16:06:55.300Z,99.90
2019-01-20T16:09:26.257Z,99.90
2019-01-20T16:11:57.170Z,99.90
2019-01-20T16:14:28.173Z,99.90
2019-01-20T16:16:59.266Z,99.90
2019-01-20T16:19:30.296Z,99.90
2019-01-20T16:22:01.203Z,99.90
2019-01-20T16:24:32.108Z,99.90
2019-01-20T16:27:03.410Z,99.90
2019-01-20T16:29:37.213Z,99.90
2019-01-20T16:32:08.225Z,99.90
2019-01-20T16:34:39.279Z,99.90
2019-01-20T16:37:10.312Z,99.90
2019-01-20T16:39:45.593Z,99.90
2019-01-20T16:42:13.949Z,99.90
2019-01-20T16:44:44.854Z,99.90
2019-01-20T16:47:15.863Z,99.90
2019-01-20T16:49:46.884Z,99.90
2019-01-20T16:52:17.799Z,99.90
2019-01-20T16:54:49.783Z,99.90
2019-01-20T16:57:20.736Z,99.90
2019-01-20T16:59:51.791Z,99.90
2019-01-20T17:02:22.827Z,99.90
2019-01-20T17:04:54.836Z,99.90
2019-01-20T17:07:25.854Z,99.90
2019-01-20T17:09:56.846Z,99.90
2019-01-20T17:12:27.791Z,99.90
2019-01-20T17:14:58.753Z,99.90
2019-01-20T17:17:30.214Z,99.90
2019-01-20T17:20:01.263Z,99.90
2019-01-20T17:22:32.341Z,99.90
2019-01-20T17:25:04.023Z,99.90
2019-01-20T17:27:34.948Z,99.90
2019-01-20T17:30:10.387Z,99.90
2019-01-20T17:32:41.447Z,99.90
2019-01-20T17:35:12.627Z,99.90
2019-01-20T17:37:43.601Z,99.90
2019-01-20T17:40:23.437Z,99.90
2019-01-20T17:42:54.416Z,99.90
2019-01-20T17:45:29.052Z,99.90
2019-01-20T17:48:01.377Z,99.90
2019-01-20T17:50:35.771Z,99.90
2019-01-20T17:53:08.344Z,99.90
2019-01-20T17:55:39.363Z,99.90
2019-01-20T17:58:10.293Z,99.90
2019-01-20T18:00:42.949Z,99.90
2019-01-20T18:03:14.243Z,99.90
2019-01-20T18:05:45.299Z,99.90
2019-01-20T18:08:16.274Z,99.90
2019-01-20T18:10:47.300Z,99.90
2019-01-20T18:13:19.790Z,99.90
2019-01-20T18:15:54.679Z,99.90
2019-01-20T18:18:23.482Z,99.90
2019-01-20T18:20:54.513Z,99.90
2019-01-20T18:23:25.400Z,99.90
2019-01-20T18:25:56.382Z,99.90
2019-01-20T18:28:27.298Z,99.90
2019-01-20T18:30:58.241Z,99.90
2019-01-20T18:33:29.336Z,99.90
2019-01-20T18:36:00.476Z,99.90
2019-01-20T18:38:31.457Z,99.90
2019-01-20T18:41:02.320Z,99.90
2019-01-20T18:43:33.272Z,99.90
2019-01-20T18:46:04.272Z,99.90
2019-01-20T18:48:35.248Z,99.90
2019-01-20T18:51:06.182Z,99.90
2019-01-20T18:53:38.163Z,99.90
2019-01-20T18:56:09.238Z,99.90
2019-01-20T18:58:40.178Z,99.90
2019-01-20T19:01:11.684Z,99.90
2019-01-20T19:03:42.723Z,99.90
2019-01-20T19:06:13.709Z,99.90
2019-01-20T19:08:44.866Z,99.90
2019-01-20T19:11:15.752Z,99.90
2019-01-20T19:13:46.730Z,99.90
2019-01-20T19:16:17.725Z,99.90
2019-01-20T19:18:48.665Z,99.90
2019-01-20T19:21:19.664Z,99.90
2019-01-20T19:23:50.595Z,99.90
2019-01-20T19:26:21.590Z,99.90
2019-01-20T19:29:03.004Z,99.90
2019-01-20T19:31:29.590Z,99.90
2019-01-20T19:34:00.481Z,99.90
2019-01-20T19:36:31.321Z,99.90
2019-01-20T19:39:02.136Z,99.90
2019-01-20T19:41:33.047Z,99.90
2019-01-20T19:44:04.057Z,99.90
2019-01-20T19:46:37.850Z,99.90
2019-01-20T19:49:08.933Z,99.90
2019-01-20T19:51:39.940Z,99.90
2019-01-20T19:54:11.000Z,99.90
2019-01-20T19:56:41.926Z,99.90
2019-01-20T19:59:12.886Z,99.90
2019-01-20T20:01:43.897Z,99.90
2019-01-20T20:04:14.856Z,99.90
2019-01-20T20:06:45.892Z,99.90
2019-01-20T20:09:16.963Z,99.90
2019-01-20T20:11:47.960Z,99.90
2019-01-20T20:14:18.882Z,99.90
2019-01-20T20:16:53.898Z,99.90
2019-01-20T20:19:24.904Z,99.90
2019-01-20T20:21:55.999Z,99.90
2019-01-20T20:24:27.186Z,99.90
2019-01-20T20:26:58.139Z,99.90
2019-01-20T20:29:29.274Z,99.90
2019-01-20T20:32:00.287Z,99.90
2019-01-20T20:34:31.343Z,99.90
2019-01-20T20:37:02.156Z,99.90
2019-01-20T20:39:33.131Z,99.90
2019-01-20T20:42:04.108Z,99.90
2019-01-20T20:44:35.242Z,99.90
2019-01-20T20:47:06.199Z,99.90
2019-01-20T20:49:37.173Z,99.90
2019-01-20T20:52:08.043Z,99.90
2019-01-20T20:54:39.022Z,99.90
2019-01-20T20:57:09.932Z,99.90
2019-01-20T20:59:41.085Z,99.90
2019-01-20T21:02:12.037Z,99.90
2019-01-20T21:04:44.591Z,99.90
2019-01-20T21:07:15.478Z,99.90
2019-01-20T21:09:46.434Z,99.90
2019-01-20T21:12:17.416Z,99.90
2019-01-20T21:14:48.541Z,99.90
2019-01-20T21:17:21.032Z,99.90
2019-01-20T21:19:52.340Z,99.90
2019-01-20T21:22:23.586Z,99.90
2019-01-20T21:24:54.672Z,99.90
2019-01-20T21:27:25.722Z,99.90
2019-01-20T21:29:56.696Z,99.90
2019-01-20T21:32:27.570Z,99.90
2019-01-20T21:34:58.608Z,99.90
2019-01-20T21:37:29.645Z,99.90
2019-01-20T21:40:00.668Z,99.90
2019-01-20T21:42:31.666Z,99.90
2019-01-20T21:45:02.736Z,99.90
2019-01-20T21:47:33.630Z,99.90
2019-01-20T21:50:07.517Z,99.90
2019-01-20T21:52:38.403Z,99.90
2019-01-20T21:55:09.454Z,99.90
2019-01-20T21:57:40.436Z,99.90
2019-01-20T22:00:15.656Z,99.90
2019-01-20T22:02:46.887Z,99.90
2019-01-20T22:05:17.884Z,99.90
2019-01-20T22:07:48.818Z,99.90
2019-01-20T22:10:22.859Z,99.90
2019-01-20T22:12:53.835Z,99.90
2019-01-20T22:15:24.900Z,99.90
2019-01-20T22:17:55.809Z,99.90
2019-01-20T22:20:26.801Z,99.90
2019-01-20T22:22:57.764Z,99.90
2019-01-20T22:25:28.726Z,99.90
2019-01-20T22:27:59.727Z,99.90
2019-01-20T22:30:30.560Z,99.90
2019-01-20T22:33:01.545Z,99.90
2019-01-20T22:35:32.575Z,99.90
2019-01-20T22:38:03.552Z,99.90
2019-01-20T22:40:34.458Z,99.90
2019-01-20T22:43:05.540Z,99.90
2019-01-20T22:45:36.352Z,99.90
2019-01-20T22:48:07.259Z,99.90
2019-01-20T22:50:38.207Z,99.90
2019-01-20T22:53:09.086Z,99.90
2019-01-20T22:55:39.928Z,99.90
2019-01-20T22:58:10.875Z,99.90
2019-01-20T23:00:50.653Z,99.90
2019-01-20T23:03:21.730Z,99.90
2019-01-20T23:05:52.536Z,99.90
2019-01-20T23:08:23.539Z,99.90
2019-01-20T23:10:54.501Z,99.90
2019-01-20T23:13:25.567Z,99.90
2019-01-20T23:15:56.499Z,99.90
2019-01-20T23:18:27.428Z,99.90
2019-01-20T23:20:58.314Z,99.90
2019-01-20T23:23:29.221Z,99.90
2019-01-20T23:26:00.172Z,99.90
2019-01-20T23:28:31.146Z,99.90
2019-01-20T23:31:02.047Z,99.90
2019-01-20T23:33:32.928Z,99.90
2019-01-20T23:36:03.929Z,99.90
2019-01-20T23:38:34.943Z,99.90
2019-01-20T23:41:05.897Z,99.90
2019-01-20T23:43:36.800Z,99.90
2019-01-20T23:46:07.680Z,99.90
2019-01-20T23:48:38.544Z,99.90
2019-01-20T23:51:09.515Z,99.90
2019-01-20T23:53:40.396Z,99.90
2019-01-20T23:56:11.310Z,99.90
2019-01-20T23:58:42.182Z,99.90
